Time;durP1;ratioP1;P1;durP2;ratioP2;P2;SDS_P1;SDS_P2;PMS_P1;PMS_P2;Temp;Humidity;BMP_temperature;BMP_pressure;BME280_temperature;BME280_humidity;BME280_pressure;Samples;Min_cycle;Max_cycle;Signal;HPM_P1;HPM_P2
2023/11/26 00:00:00;;;;;;;25.25;16.15;;;11.20;58.70;;;;;;345633;28;1047;-58
2023/11/26 00:00:12;;;;;;;26.80;16.70;;;11.20;58.70;;;;;;345756;28;885;-57
2023/11/26 00:00:23;;;;;;;27.92;17.05;;;11.20;58.70;;;;;;345590;28;1459;-58
2023/11/26 00:00:34;;;;;;;26.52;17.05;;;11.20;58.70;;;;;;345704;28;1131;-58
2023/11/26 00:00:47;;;;;;;26.90;17.20;;;11.20;58.70;;;;;;345725;28;927;-58
2023/11/26 00:00:59;;;;;;;27.45;16.92;;;11.20;58.70;;;;;;345706;28;1484;-58
2023/11/26 00:01:16;;;;;;;27.63;16.15;;;11.20;58.70;;;;;;345619;28;1009;-58
2023/11/26 00:01:27;;;;;;;24.63;15.90;;;11.20;58.70;;;;;;345702;28;1104;-59
2023/11/26 00:01:38;;;;;;;25.05;15.95;;;11.20;58.60;;;;;;345623;28;1177;-57
2023/11/26 00:01:51;;;;;;;25.08;15.90;;;11.20;58.60;;;;;;345731;28;1138;-57
2023/11/26 00:02:02;;;;;;;24.23;15.30;;;11.20;58.60;;;;;;345625;28;2157;-59
2023/11/26 00:02:13;;;;;;;22.95;15.20;;;11.20;58.70;;;;;;345732;28;932;-58
2023/11/26 00:02:23;;;;;;;22.15;14.90;;;11.20;58.80;;;;;;345632;28;1587;-59
2023/11/26 00:02:35;;;;;;;23.38;14.68;;;11.20;58.70;;;;;;345784;28;821;-58
2023/11/26 00:02:46;;;;;;;25.00;14.68;;;11.20;58.70;;;;;;345631;28;1211;-57
2023/11/26 00:02:56;;;;;;;25.15;14.68;;;11.20;58.60;;;;;;345716;28;1134;-56
2023/11/26 00:03:07;;;;;;;25.75;14.70;;;11.20;58.60;;;;;;345589;28;1032;-58
2023/11/26 00:03:18;;;;;;;25.70;14.38;;;11.20;58.60;;;;;;345748;28;956;-57
2023/11/26 00:03:29;;;;;;;25.27;14.93;;;11.20;58.60;;;;;;345686;28;1050;-60
2023/11/26 00:03:39;;;;;;;23.45;15.05;;;11.20;58.60;;;;;;345802;28;873;-58
2023/11/26 00:03:50;;;;;;;23.52;15.18;;;11.20;58.60;;;;;;345596;28;1091;-57
2023/11/26 00:04:01;;;;;;;24.58;15.13;;;11.20;58.50;;;;;;345713;28;1631;-58
2023/11/26 00:04:12;;;;;;;27.83;15.30;;;11.20;58.60;;;;;;345677;28;927;-58
2023/11/26 00:04:23;;;;;;;30.00;15.90;;;11.20;58.60;;;;;;345683;28;1063;-58
2023/11/26 00:04:34;;;;;;;27.50;15.75;;;11.20;58.60;;;;;;345673;28;1092;-58
2023/11/26 00:04:44;;;;;;;24.65;15.48;;;11.20;58.60;;;;;;345740;28;1850;-58
2023/11/26 00:04:55;;;;;;;21.75;14.77;;;11.20;58.60;;;;;;345727;28;1100;-58
2023/11/26 00:05:07;;;;;;;21.98;14.43;;;11.20;58.60;;;;;;345655;28;1073;-58
2023/11/26 00:05:19;;;;;;;22.33;14.55;;;11.20;58.60;;;;;;345738;28;1143;-59
2023/11/26 00:05:29;;;;;;;22.60;14.60;;;11.20;58.50;;;;;;345717;28;889;-59
2023/11/26 00:05:40;;;;;;;23.23;14.23;;;11.20;58.50;;;;;;345537;28;1891;-58
2023/11/26 00:05:51;;;;;;;24.13;13.90;;;11.20;58.50;;;;;;345671;28;1104;-56
2023/11/26 00:06:05;;;;;;;24.92;13.80;;;11.20;58.50;;;;;;345788;28;814;-58
2023/11/26 00:06:16;;;;;;;23.77;14.43;;;11.20;58.50;;;;;;345697;28;923;-60
2023/11/26 00:06:27;;;;;;;24.92;15.25;;;11.20;58.50;;;;;;345756;28;916;-57
2023/11/26 00:06:43;;;;;;;24.23;15.70;;;11.20;58.50;;;;;;345801;28;922;-59
2023/11/26 00:06:54;;;;;;;24.08;15.25;;;11.20;58.60;;;;;;345629;28;1048;-57
2023/11/26 00:07:05;;;;;;;24.00;14.80;;;11.20;58.60;;;;;;345698;28;1411;-57
2023/11/26 00:07:16;;;;;;;25.02;14.73;;;11.20;58.60;;;;;;345619;28;1371;-58
2023/11/26 00:07:26;;;;;;;28.50;15.10;;;11.20;58.60;;;;;;345737;28;896;-57
2023/11/26 00:07:37;;;;;;;28.83;16.02;;;11.20;58.60;;;;;;345668;28;1146;-58
2023/11/26 00:07:48;;;;;;;28.77;16.60;;;11.20;58.60;;;;;;345735;28;794;-58
2023/11/26 00:07:59;;;;;;;28.42;17.00;;;11.20;58.60;;;;;;345667;28;1094;-58
2023/11/26 00:08:10;;;;;;;30.30;17.47;;;11.20;58.70;;;;;;345746;28;900;-57
2023/11/26 00:08:20;;;;;;;31.58;17.88;;;11.20;58.60;;;;;;345627;28;1375;-57
2023/11/26 00:08:31;;;;;;;31.05;18.55;;;11.20;58.60;;;;;;345642;28;1211;-58
2023/11/26 00:08:42;;;;;;;30.00;18.80;;;11.20;58.70;;;;;;345746;28;877;-58
2023/11/26 00:08:53;;;;;;;28.45;18.92;;;11.20;58.70;;;;;;345712;28;1234;-59
2023/11/26 00:09:04;;;;;;;26.58;18.10;;;11.20;58.70;;;;;;345615;28;1083;-58
2023/11/26 00:09:15;;;;;;;30.30;18.40;;;11.20;58.70;;;;;;345757;28;1460;-58
2023/11/26 00:09:26;;;;;;;31.50;18.58;;;11.20;58.70;;;;;;345718;28;1124;-57
2023/11/26 00:09:37;;;;;;;32.85;18.40;;;11.20;58.70;;;;;;345621;28;1254;-58
2023/11/26 00:09:47;;;;;;;31.80;17.60;;;11.20;58.70;;;;;;345756;28;873;-57
2023/11/26 00:09:58;;;;;;;30.52;17.45;;;11.20;58.70;;;;;;345695;28;984;-57
2023/11/26 00:10:09;;;;;;;28.70;17.37;;;11.20;58.70;;;;;;345630;28;1519;-57
2023/11/26 00:10:20;;;;;;;27.88;17.45;;;11.20;58.70;;;;;;345695;28;963;-58
2023/11/26 00:10:31;;;;;;;28.88;16.52;;;11.20;58.70;;;;;;345705;28;1083;-58
2023/11/26 00:10:42;;;;;;;27.60;15.47;;;11.20;58.70;;;;;;345684;28;873;-57
2023/11/26 00:10:53;;;;;;;26.00;15.13;;;11.20;58.70;;;;;;345770;28;1028;-58
2023/11/26 00:11:03;;;;;;;22.92;14.77;;;11.20;58.70;;;;;;345728;28;1019;-57
2023/11/26 00:11:14;;;;;;;23.27;14.65;;;11.20;58.70;;;;;;345703;28;1066;-61
2023/11/26 00:11:25;;;;;;;22.67;13.98;;;11.20;58.70;;;;;;345721;28;983;-57
2023/11/26 00:11:37;;;;;;;21.67;13.57;;;11.20;58.70;;;;;;345737;28;956;-59
2023/11/26 00:11:47;;;;;;;21.80;13.75;;;11.20;58.70;;;;;;345734;28;817;-58
2023/11/26 00:11:58;;;;;;;20.77;13.75;;;11.20;58.70;;;;;;345731;28;1024;-59
2023/11/26 00:12:09;;;;;;;19.90;13.43;;;11.20;58.70;;;;;;345672;28;806;-58
2023/11/26 00:12:19;;;;;;;18.73;13.05;;;11.20;58.70;;;;;;345512;28;1606;-58
2023/11/26 00:12:30;;;;;;;18.30;12.73;;;11.20;58.70;;;;;;345679;28;1055;-58
2023/11/26 00:12:41;;;;;;;19.85;12.57;;;11.20;58.70;;;;;;345740;28;1023;-57
2023/11/26 00:12:52;;;;;;;19.92;12.38;;;11.20;58.70;;;;;;345617;28;972;-58
2023/11/26 00:13:03;;;;;;;19.88;12.32;;;11.20;58.70;;;;;;345645;28;817;-58
2023/11/26 00:13:14;;;;;;;20.85;12.32;;;11.10;58.70;;;;;;345545;28;1408;-58
2023/11/26 00:13:25;;;;;;;21.45;12.07;;;11.20;58.70;;;;;;345647;28;909;-58
2023/11/26 00:13:35;;;;;;;23.45;12.27;;;11.20;58.60;;;;;;345654;28;1058;-59
2023/11/26 00:13:46;;;;;;;24.00;12.77;;;11.20;58.60;;;;;;345633;28;869;-58
2023/11/26 00:13:57;;;;;;;22.52;12.60;;;11.20;58.60;;;;;;345682;28;1043;-59
2023/11/26 00:14:08;;;;;;;18.58;12.00;;;11.20;58.60;;;;;;345521;28;1155;-57
2023/11/26 00:14:19;;;;;;;19.67;12.05;;;11.20;58.60;;;;;;345567;28;1079;-58
2023/11/26 00:14:29;;;;;;;22.45;12.27;;;11.20;58.60;;;;;;345631;28;1059;-57
2023/11/26 00:14:41;;;;;;;22.38;12.60;;;11.20;58.60;;;;;;345629;28;988;-57
2023/11/26 00:14:52;;;;;;;21.00;12.75;;;11.20;58.60;;;;;;345779;28;1042;-57
2023/11/26 00:15:05;;;;;;;21.77;13.15;;;11.20;58.60;;;;;;345650;28;1266;-58
2023/11/26 00:15:15;;;;;;;24.17;13.30;;;11.20;58.70;;;;;;345674;28;1334;-58
2023/11/26 00:15:26;;;;;;;21.73;13.13;;;11.20;58.70;;;;;;345688;28;1122;-58
2023/11/26 00:15:37;;;;;;;19.75;12.98;;;11.20;58.70;;;;;;345598;28;1055;-57
2023/11/26 00:15:48;;;;;;;20.02;12.98;;;11.20;58.60;;;;;;345786;28;876;-58
2023/11/26 00:16:01;;;;;;;20.80;13.10;;;11.20;58.60;;;;;;345691;28;1082;-57
2023/11/26 00:16:12;;;;;;;21.63;12.95;;;11.20;58.70;;;;;;345612;28;1206;-59
2023/11/26 00:16:23;;;;;;;19.77;12.48;;;11.20;58.70;;;;;;345755;28;1020;-62
2023/11/26 00:16:37;;;;;;;21.83;12.85;;;11.20;58.70;;;;;;345693;28;984;-59
2023/11/26 00:16:48;;;;;;;22.27;13.15;;;11.20;58.70;;;;;;345628;28;1098;-58
2023/11/26 00:16:59;;;;;;;24.40;13.70;;;11.20;58.70;;;;;;345736;28;968;-58
2023/11/26 00:17:10;;;;;;;22.80;13.77;;;11.20;58.70;;;;;;345704;28;1147;-58
2023/11/26 00:17:20;;;;;;;25.70;14.50;;;11.20;58.70;;;;;;345597;28;2123;-60
2023/11/26 00:17:32;;;;;;;24.23;14.40;;;11.20;58.70;;;;;;345774;28;857;-57
2023/11/26 00:17:43;;;;;;;24.83;14.13;;;11.20;58.60;;;;;;345777;28;984;-58
2023/11/26 00:17:54;;;;;;;23.35;13.85;;;11.20;58.70;;;;;;345663;28;1448;-57
2023/11/26 00:18:06;;;;;;;22.95;14.02;;;11.20;58.70;;;;;;345703;28;870;-57
2023/11/26 00:18:16;;;;;;;24.05;14.88;;;11.20;58.70;;;;;;345697;28;1028;-57
2023/11/26 00:18:28;;;;;;;25.02;15.07;;;11.20;58.70;;;;;;345591;28;976;-57
2023/11/26 00:18:39;;;;;;;23.77;15.48;;;11.20;58.70;;;;;;345734;28;1189;-57
2023/11/26 00:18:49;;;;;;;27.10;15.55;;;11.20;58.70;;;;;;345760;28;857;-58
2023/11/26 00:19:00;;;;;;;28.60;15.57;;;11.20;58.70;;;;;;345568;28;1088;-57
2023/11/26 00:19:11;;;;;;;27.77;15.20;;;11.20;58.70;;;;;;345656;28;972;-58
2023/11/26 00:19:22;;;;;;;25.13;14.73;;;11.20;58.70;;;;;;345705;28;1637;-58
2023/11/26 00:19:34;;;;;;;24.33;14.80;;;11.20;58.80;;;;;;345600;28;1024;-58
2023/11/26 00:19:45;;;;;;;24.85;14.65;;;11.20;58.80;;;;;;345771;28;1091;-58
2023/11/26 00:19:56;;;;;;;25.48;15.15;;;11.20;58.80;;;;;;345731;28;1027;-59
2023/11/26 00:20:07;;;;;;;24.50;15.43;;;11.20;58.80;;;;;;345646;28;985;-58
2023/11/26 00:20:18;;;;;;;25.42;16.73;;;11.20;58.70;;;;;;345737;28;1060;-58
2023/11/26 00:20:29;;;;;;;25.27;17.15;;;11.20;58.70;;;;;;345652;28;1024;-58
2023/11/26 00:20:40;;;;;;;26.55;17.65;;;11.20;58.60;;;;;;345702;28;1126;-57
2023/11/26 00:20:51;;;;;;;26.02;17.08;;;11.20;58.60;;;;;;345667;28;1041;-57
2023/11/26 00:21:01;;;;;;;26.23;16.95;;;11.20;58.60;;;;;;345697;28;1111;-58
2023/11/26 00:21:13;;;;;;;26.73;16.63;;;11.20;58.60;;;;;;345647;28;1059;-58
2023/11/26 00:21:24;;;;;;;31.42;17.90;;;11.20;58.70;;;;;;345699;28;920;-59
2023/11/26 00:21:35;;;;;;;32.53;18.65;;;11.20;58.70;;;;;;345619;28;1006;-58
2023/11/26 00:21:48;;;;;;;32.97;19.63;;;11.20;58.70;;;;;;345738;28;925;-58
2023/11/26 00:22:00;;;;;;;29.08;19.60;;;11.20;58.70;;;;;;345645;28;967;-58
2023/11/26 00:22:10;;;;;;;30.77;19.55;;;11.20;58.60;;;;;;345695;28;1186;-59
2023/11/26 00:22:25;;;;;;;31.33;19.40;;;11.20;58.60;;;;;;345571;28;1103;-58
2023/11/26 00:22:36;;;;;;;28.35;18.05;;;11.20;58.60;;;;;;345738;28;1028;-57
2023/11/26 00:22:47;;;;;;;28.17;17.77;;;11.20;58.70;;;;;;345590;28;1494;-57
2023/11/26 00:22:58;;;;;;;29.60;17.73;;;11.20;58.70;;;;;;345704;28;881;-58
2023/11/26 00:23:08;;;;;;;30.40;18.27;;;11.20;58.60;;;;;;345593;28;1170;-57
2023/11/26 00:23:19;;;;;;;29.58;18.40;;;11.20;58.60;;;;;;345689;28;892;-58
2023/11/26 00:23:30;;;;;;;28.92;18.27;;;11.20;58.60;;;;;;345647;28;1166;-57
2023/11/26 00:23:41;;;;;;;31.13;18.40;;;11.20;58.60;;;;;;345647;28;1082;-58
2023/11/26 00:23:52;;;;;;;32.35;19.00;;;11.20;58.60;;;;;;345655;28;924;-59
2023/11/26 00:24:03;;;;;;;33.80;20.25;;;11.20;58.60;;;;;;345647;28;1632;-57
2023/11/26 00:24:13;;;;;;;35.70;21.73;;;11.20;58.60;;;;;;345587;28;1198;-57
2023/11/26 00:24:25;;;;;;;35.92;22.77;;;11.20;58.60;;;;;;345633;28;1079;-58
2023/11/26 00:24:35;;;;;;;36.17;23.55;;;11.20;58.60;;;;;;345636;28;943;-57
2023/11/26 00:24:46;;;;;;;36.72;24.05;;;11.20;58.60;;;;;;345639;28;1671;-57
2023/11/26 00:24:57;;;;;;;36.77;24.23;;;11.20;58.60;;;;;;345553;28;1019;-59
2023/11/26 00:25:08;;;;;;;39.38;24.30;;;11.20;58.60;;;;;;345723;28;1011;-57
2023/11/26 00:25:19;;;;;;;39.53;24.25;;;11.20;58.60;;;;;;345714;28;913;-58
2023/11/26 00:25:29;;;;;;;40.65;24.23;;;11.20;58.60;;;;;;345686;28;1023;-57
2023/11/26 00:25:41;;;;;;;38.47;24.30;;;11.20;58.50;;;;;;345555;28;1914;-57
2023/11/26 00:25:53;;;;;;;41.22;24.08;;;11.20;58.60;;;;;;345674;28;1123;-58
2023/11/26 00:26:04;;;;;;;39.63;23.60;;;11.20;58.50;;;;;;345631;28;1487;-58
2023/11/26 00:26:14;;;;;;;35.80;22.10;;;11.20;58.60;;;;;;345728;28;864;-57
2023/11/26 00:26:26;;;;;;;32.90;21.30;;;11.20;58.60;;;;;;345579;28;1025;-58
2023/11/26 00:26:37;;;;;;;33.53;20.60;;;11.20;58.60;;;;;;345749;28;853;-57
2023/11/26 00:26:48;;;;;;;33.30;20.25;;;11.20;58.60;;;;;;345671;28;1024;-58
2023/11/26 00:26:59;;;;;;;32.37;20.53;;;11.20;58.60;;;;;;345668;28;865;-58
2023/11/26 00:27:09;;;;;;;32.03;20.85;;;11.20;58.50;;;;;;345606;28;1156;-58
2023/11/26 00:27:20;;;;;;;32.78;20.73;;;11.20;58.50;;;;;;345698;28;1082;-57
2023/11/26 00:27:31;;;;;;;30.55;19.42;;;11.20;58.50;;;;;;345696;28;1072;-57
2023/11/26 00:27:42;;;;;;;29.08;18.40;;;11.20;58.50;;;;;;345733;28;920;-59
2023/11/26 00:27:52;;;;;;;28.37;17.67;;;11.20;58.50;;;;;;345582;28;996;-58
2023/11/26 00:28:03;;;;;;;28.60;17.20;;;11.20;58.50;;;;;;345777;28;1070;-58
2023/11/26 00:28:14;;;;;;;29.17;16.25;;;11.20;58.40;;;;;;345639;28;1237;-57
2023/11/26 00:28:25;;;;;;;26.45;15.23;;;11.20;58.40;;;;;;345570;28;1445;-56
2023/11/26 00:28:35;;;;;;;26.95;14.75;;;11.20;58.30;;;;;;345578;28;1041;-58
2023/11/26 00:28:46;;;;;;;24.75;14.13;;;11.20;58.30;;;;;;345676;28;1083;-60
2023/11/26 00:28:57;;;;;;;25.97;14.70;;;11.20;58.20;;;;;;345653;28;1024;-58
2023/11/26 00:29:08;;;;;;;26.02;14.85;;;11.20;58.20;;;;;;345702;28;964;-57
2023/11/26 00:29:19;;;;;;;29.42;16.23;;;11.20;58.20;;;;;;345601;28;1032;-58
2023/11/26 00:29:32;;;;;;;30.13;16.70;;;11.20;58.20;;;;;;345679;28;849;-58
2023/11/26 00:29:43;;;;;;;29.85;17.15;;;11.20;58.20;;;;;;345722;28;920;-57
2023/11/26 00:29:54;;;;;;;25.38;16.38;;;11.20;58.30;;;;;;345700;28;968;-58
2023/11/26 00:30:06;;;;;;;22.27;15.68;;;11.20;58.20;;;;;;345631;28;1090;-60
2023/11/26 00:30:17;;;;;;;21.25;14.98;;;11.20;58.20;;;;;;345667;28;1048;-58
2023/11/26 00:30:29;;;;;;;22.17;14.23;;;11.20;58.30;;;;;;345677;28;1383;-58
2023/11/26 00:30:39;;;;;;;24.08;14.25;;;11.20;58.30;;;;;;345728;28;1070;-58
2023/11/26 00:30:50;;;;;;;24.90;13.60;;;11.20;58.20;;;;;;345677;28;1095;-59
2023/11/26 00:31:01;;;;;;;25.50;13.38;;;11.20;58.20;;;;;;345631;28;1082;-58
2023/11/26 00:31:12;;;;;;;23.38;12.80;;;11.20;58.10;;;;;;345698;28;990;-58
2023/11/26 00:31:24;;;;;;;22.52;12.55;;;11.20;58.20;;;;;;345664;28;1103;-57
2023/11/26 00:31:35;;;;;;;20.45;12.48;;;11.20;58.20;;;;;;345722;28;1059;-58
2023/11/26 00:31:47;;;;;;;20.52;12.05;;;11.20;58.10;;;;;;345778;28;822;-57
2023/11/26 00:31:58;;;;;;;19.65;12.10;;;11.20;58.10;;;;;;345657;28;1103;-57
2023/11/26 00:32:09;;;;;;;19.95;12.18;;;11.20;58.00;;;;;;345651;28;1012;-57
2023/11/26 00:32:19;;;;;;;21.13;12.68;;;11.20;58.00;;;;;;345679;28;976;-57
2023/11/26 00:32:30;;;;;;;20.80;12.53;;;11.20;58.00;;;;;;345688;28;833;-57
2023/11/26 00:32:41;;;;;;;21.45;12.35;;;11.20;58.00;;;;;;345721;28;980;-58
2023/11/26 00:32:52;;;;;;;19.23;12.15;;;11.20;58.00;;;;;;345653;28;1142;-57
2023/11/26 00:33:02;;;;;;;21.25;12.07;;;11.20;58.00;;;;;;345689;28;968;-58
2023/11/26 00:33:15;;;;;;;21.20;12.18;;;11.20;58.00;;;;;;345727;28;1092;-57
2023/11/26 00:33:26;;;;;;;21.95;11.77;;;11.20;58.00;;;;;;345703;28;1579;-57
2023/11/26 00:33:37;;;;;;;23.33;12.03;;;11.20;57.90;;;;;;345670;28;1100;-57
2023/11/26 00:33:48;;;;;;;24.02;12.60;;;11.20;57.90;;;;;;345587;28;1374;-58
2023/11/26 00:33:59;;;;;;;24.50;13.05;;;11.20;57.90;;;;;;345706;28;1582;-57
2023/11/26 00:34:10;;;;;;;22.43;13.03;;;11.10;57.90;;;;;;345671;28;1122;-57
2023/11/26 00:34:21;;;;;;;21.75;12.55;;;11.20;58.00;;;;;;345714;28;896;-57
2023/11/26 00:34:32;;;;;;;20.63;12.55;;;11.10;58.10;;;;;;345694;28;979;-57
2023/11/26 00:34:43;;;;;;;22.63;12.75;;;11.20;58.00;;;;;;345633;28;999;-58
2023/11/26 00:34:54;;;;;;;24.10;13.13;;;11.10;58.00;;;;;;345669;28;1577;-57
2023/11/26 00:35:05;;;;;;;25.52;13.60;;;11.10;58.00;;;;;;345676;28;1116;-60
2023/11/26 00:35:16;;;;;;;24.13;14.02;;;11.10;58.10;;;;;;345663;28;847;-57
2023/11/26 00:35:27;;;;;;;23.48;14.23;;;11.10;58.10;;;;;;345651;28;1028;-57
2023/11/26 00:35:37;;;;;;;23.30;15.32;;;11.10;58.10;;;;;;345609;28;1021;-57
2023/11/26 00:35:48;;;;;;;26.50;17.27;;;11.10;58.10;;;;;;345656;28;949;-56
2023/11/26 00:35:59;;;;;;;28.70;18.27;;;11.10;58.10;;;;;;345670;28;991;-57
2023/11/26 00:36:12;;;;;;;31.45;19.42;;;11.10;58.10;;;;;;345608;28;960;-57
2023/11/26 00:36:22;;;;;;;34.35;21.23;;;11.10;58.10;;;;;;345622;28;1119;-58
2023/11/26 00:36:33;;;;;;;37.53;22.48;;;11.10;58.10;;;;;;345684;28;878;-57
2023/11/26 00:36:44;;;;;;;39.80;24.13;;;11.10;58.00;;;;;;345623;28;1056;-57
2023/11/26 00:36:55;;;;;;;39.58;23.50;;;11.10;58.00;;;;;;345688;28;1019;-58
2023/11/26 00:37:05;;;;;;;35.97;21.92;;;11.10;58.00;;;;;;345615;28;1921;-58
2023/11/26 00:37:16;;;;;;;32.55;19.83;;;11.10;58.00;;;;;;345661;28;1143;-58
2023/11/26 00:37:27;;;;;;;31.15;19.33;;;11.10;58.10;;;;;;345713;28;992;-59
2023/11/26 00:37:38;;;;;;;30.03;19.20;;;11.10;58.10;;;;;;345676;28;1303;-57
2023/11/26 00:37:48;;;;;;;28.73;18.43;;;11.00;58.10;;;;;;345530;28;1421;-59
2023/11/26 00:37:59;;;;;;;30.98;18.88;;;11.10;58.10;;;;;;345704;28;1060;-58
2023/11/26 00:38:11;;;;;;;30.50;18.42;;;11.10;58.20;;;;;;345622;28;1111;-59
2023/11/26 00:38:22;;;;;;;32.22;18.58;;;11.10;58.20;;;;;;345654;28;912;-57
2023/11/26 00:38:32;;;;;;;30.03;18.07;;;11.10;58.10;;;;;;345699;28;1036;-58
2023/11/26 00:38:44;;;;;;;30.43;17.53;;;11.00;58.10;;;;;;345612;28;1282;-58
2023/11/26 00:38:55;;;;;;;30.45;17.63;;;11.10;58.10;;;;;;345619;28;1098;-58
2023/11/26 00:39:06;;;;;;;31.00;17.70;;;11.00;58.10;;;;;;345633;28;1155;-58
2023/11/26 00:39:16;;;;;;;30.75;17.38;;;11.00;58.10;;;;;;345647;28;1080;-56
2023/11/26 00:39:27;;;;;;;27.87;16.90;;;11.00;58.00;;;;;;345586;28;1025;-57
2023/11/26 00:39:38;;;;;;;25.50;16.90;;;11.10;58.00;;;;;;345627;28;1067;-59
2023/11/26 00:39:49;;;;;;;25.57;16.57;;;11.00;58.00;;;;;;345682;28;1040;-58
2023/11/26 00:40:00;;;;;;;25.23;15.80;;;11.00;58.00;;;;;;345649;28;1123;-59
2023/11/26 00:40:12;;;;;;;25.25;15.85;;;11.00;58.00;;;;;;345614;28;1139;-58
2023/11/26 00:40:24;;;;;;;25.80;16.33;;;11.00;58.00;;;;;;345647;28;1094;-58
2023/11/26 00:40:35;;;;;;;26.38;16.40;;;11.00;58.00;;;;;;345692;28;1112;-57
2023/11/26 00:40:46;;;;;;;25.80;15.38;;;11.00;58.00;;;;;;345647;28;993;-58
2023/11/26 00:40:56;;;;;;;24.50;14.82;;;11.00;58.00;;;;;;345614;28;1075;-57
2023/11/26 00:41:07;;;;;;;24.27;15.02;;;11.00;58.10;;;;;;345667;28;1059;-58
2023/11/26 00:41:18;;;;;;;27.30;15.32;;;11.00;58.10;;;;;;345735;28;942;-57
2023/11/26 00:41:29;;;;;;;28.90;15.10;;;11.00;58.00;;;;;;345684;28;976;-58
2023/11/26 00:41:44;;;;;;;27.50;14.57;;;11.00;58.10;;;;;;345599;28;1138;-58
2023/11/26 00:41:55;;;;;;;25.75;14.82;;;11.00;58.10;;;;;;345718;28;1101;-58
2023/11/26 00:42:07;;;;;;;25.55;14.30;;;10.90;58.10;;;;;;345720;28;1111;-58
2023/11/26 00:42:18;;;;;;;23.48;13.50;;;11.00;58.10;;;;;;345678;28;980;-57
2023/11/26 00:42:29;;;;;;;23.50;13.52;;;11.00;58.10;;;;;;345605;28;1028;-57
2023/11/26 00:42:39;;;;;;;23.27;13.73;;;10.90;58.10;;;;;;345664;28;973;-58
2023/11/26 00:42:51;;;;;;;24.67;14.73;;;10.90;58.20;;;;;;345656;28;980;-57
2023/11/26 00:43:02;;;;;;;24.42;14.98;;;10.90;58.10;;;;;;345672;28;1354;-58
2023/11/26 00:43:12;;;;;;;25.08;15.05;;;10.90;58.10;;;;;;345685;28;968;-57
2023/11/26 00:43:23;;;;;;;24.27;14.53;;;10.90;58.20;;;;;;345604;28;1111;-58
2023/11/26 00:43:35;;;;;;;27.30;14.68;;;10.90;58.20;;;;;;345592;28;1202;-60
2023/11/26 00:43:45;;;;;;;27.52;15.35;;;10.90;58.20;;;;;;345649;28;1171;-56
2023/11/26 00:43:56;;;;;;;26.90;16.17;;;10.90;58.20;;;;;;345585;28;951;-57
2023/11/26 00:44:07;;;;;;;27.10;16.97;;;10.90;58.20;;;;;;345673;28;845;-57
2023/11/26 00:44:18;;;;;;;26.85;16.67;;;10.90;58.20;;;;;;345652;28;1023;-57
2023/11/26 00:44:29;;;;;;;25.95;15.55;;;10.90;58.20;;;;;;345728;28;841;-58
2023/11/26 00:44:40;;;;;;;22.92;14.18;;;10.90;58.20;;;;;;345665;28;1139;-57
2023/11/26 00:44:51;;;;;;;23.98;13.27;;;10.90;58.20;;;;;;345695;28;900;-57
2023/11/26 00:45:02;;;;;;;23.55;12.57;;;10.90;58.30;;;;;;345672;28;1146;-56
2023/11/26 00:45:13;;;;;;;22.75;12.98;;;10.80;58.20;;;;;;345740;28;976;-57
2023/11/26 00:45:24;;;;;;;22.95;13.25;;;10.80;58.20;;;;;;345534;28;1814;-58
2023/11/26 00:45:35;;;;;;;22.23;13.43;;;10.80;58.20;;;;;;345704;28;984;-59
2023/11/26 00:45:46;;;;;;;22.05;13.20;;;10.80;58.30;;;;;;345649;28;2396;-58
2023/11/26 00:45:57;;;;;;;20.00;12.55;;;10.80;58.30;;;;;;345653;28;1444;-58
2023/11/26 00:46:07;;;;;;;19.93;12.13;;;10.80;58.30;;;;;;345543;28;1119;-56
2023/11/26 00:46:18;;;;;;;22.00;11.82;;;10.80;58.20;;;;;;345627;28;1040;-58
2023/11/26 00:46:29;;;;;;;23.75;12.05;;;10.80;58.30;;;;;;345674;28;1074;-58
2023/11/26 00:46:40;;;;;;;23.45;11.85;;;10.80;58.30;;;;;;345627;28;960;-58
2023/11/26 00:46:51;;;;;;;21.13;11.98;;;10.80;58.30;;;;;;345638;28;917;-57
2023/11/26 00:47:02;;;;;;;21.05;12.65;;;10.80;58.40;;;;;;345629;28;1773;-58
2023/11/26 00:47:12;;;;;;;22.02;12.75;;;10.80;58.40;;;;;;345618;28;1704;-57
2023/11/26 00:47:23;;;;;;;21.63;12.50;;;10.80;58.40;;;;;;345625;28;1167;-57
2023/11/26 00:47:34;;;;;;;21.10;11.93;;;10.80;58.40;;;;;;345603;28;1134;-57
2023/11/26 00:47:45;;;;;;;20.20;11.75;;;10.80;58.40;;;;;;345643;28;1050;-58
2023/11/26 00:47:57;;;;;;;21.27;11.60;;;10.80;58.40;;;;;;345685;28;1058;-59
2023/11/26 00:48:08;;;;;;;21.15;11.70;;;10.80;58.40;;;;;;345606;28;2013;-58
2023/11/26 00:48:19;;;;;;;20.83;11.98;;;10.80;58.40;;;;;;345590;28;904;-58
2023/11/26 00:48:29;;;;;;;19.73;12.02;;;10.80;58.30;;;;;;345627;28;1086;-57
2023/11/26 00:48:40;;;;;;;20.80;12.50;;;10.80;58.40;;;;;;345704;28;1023;-57
2023/11/26 00:48:51;;;;;;;20.05;12.25;;;10.80;58.40;;;;;;345633;28;1142;-59
2023/11/26 00:49:05;;;;;;;19.67;11.90;;;10.80;58.40;;;;;;345603;28;1471;-57
2023/11/26 00:49:16;;;;;;;18.02;11.85;;;10.80;58.40;;;;;;345623;28;1139;-59
2023/11/26 00:49:27;;;;;;;17.27;11.98;;;10.80;58.40;;;;;;345666;28;1091;-57
2023/11/26 00:49:38;;;;;;;18.15;12.32;;;10.80;58.50;;;;;;345575;28;1444;-58
2023/11/26 00:49:48;;;;;;;21.67;12.90;;;10.80;58.50;;;;;;345685;28;813;-57
2023/11/26 00:50:02;;;;;;;24.20;13.80;;;10.70;58.60;;;;;;345656;28;1026;-58
2023/11/26 00:50:14;;;;;;;24.27;14.13;;;10.70;58.50;;;;;;345581;28;1039;-58
2023/11/26 00:50:25;;;;;;;22.30;13.52;;;10.80;58.60;;;;;;345606;28;1278;-59
2023/11/26 00:50:35;;;;;;;22.10;13.23;;;10.70;58.60;;;;;;345600;28;1015;-58
2023/11/26 00:50:46;;;;;;;24.70;13.33;;;10.70;58.60;;;;;;345671;28;892;-58
2023/11/26 00:50:57;;;;;;;25.35;13.05;;;10.70;58.60;;;;;;345713;28;896;-57
2023/11/26 00:51:08;;;;;;;23.88;12.50;;;10.70;58.60;;;;;;345553;28;984;-56
2023/11/26 00:51:24;;;;;;;21.60;12.23;;;10.70;58.60;;;;;;345475;28;1031;-58
2023/11/26 00:51:35;;;;;;;21.42;12.23;;;10.80;58.60;;;;;;345590;28;996;-58
2023/11/26 00:51:46;;;;;;;20.05;11.77;;;10.70;58.70;;;;;;345562;28;1096;-58
2023/11/26 00:51:57;;;;;;;20.17;11.47;;;10.70;58.60;;;;;;345542;28;1072;-57
2023/11/26 00:52:08;;;;;;;20.75;11.73;;;10.70;58.70;;;;;;345566;28;964;-58
2023/11/26 00:52:19;;;;;;;22.65;12.02;;;10.70;58.70;;;;;;345594;28;1042;-58
2023/11/26 00:52:32;;;;;;;21.52;12.18;;;10.70;58.70;;;;;;345491;28;959;-58
2023/11/26 00:52:43;;;;;;;20.10;11.98;;;10.70;58.70;;;;;;345589;28;887;-57
2023/11/26 00:52:53;;;;;;;19.40;11.98;;;10.70;58.70;;;;;;345598;28;914;-57
2023/11/26 00:53:04;;;;;;;19.92;11.80;;;10.70;58.70;;;;;;345539;28;908;-57
2023/11/26 00:53:15;;;;;;;20.40;11.35;;;10.70;58.70;;;;;;345655;28;1071;-57
2023/11/26 00:53:26;;;;;;;20.92;11.65;;;10.70;58.70;;;;;;345658;28;996;-57
2023/11/26 00:53:37;;;;;;;21.92;12.25;;;10.70;58.70;;;;;;345583;28;1049;-59
2023/11/26 00:53:50;;;;;;;22.97;12.83;;;10.70;58.70;;;;;;345702;28;869;-57
2023/11/26 00:54:01;;;;;;;22.88;12.50;;;10.70;58.80;;;;;;345624;28;931;-57
2023/11/26 00:54:12;;;;;;;20.75;11.98;;;10.70;58.80;;;;;;345627;28;1095;-58
2023/11/26 00:54:22;;;;;;;17.50;11.27;;;10.70;58.80;;;;;;345586;28;995;-57
2023/11/26 00:54:33;;;;;;;18.60;10.88;;;10.70;58.80;;;;;;345715;28;1034;-57
2023/11/26 00:54:44;;;;;;;20.27;10.80;;;10.70;58.90;;;;;;345617;28;944;-57
2023/11/26 00:54:55;;;;;;;20.25;11.02;;;10.70;58.90;;;;;;345646;28;825;-58
2023/11/26 00:55:06;;;;;;;19.70;10.98;;;10.70;58.80;;;;;;345668;28;1032;-57
2023/11/26 00:55:17;;;;;;;19.58;10.73;;;10.70;58.90;;;;;;345599;28;972;-58
2023/11/26 00:55:28;;;;;;;21.02;10.93;;;10.70;58.90;;;;;;345597;28;1393;-57
2023/11/26 00:55:39;;;;;;;20.38;11.02;;;10.70;58.90;;;;;;345621;28;2022;-57
2023/11/26 00:55:50;;;;;;;19.63;11.03;;;10.70;58.90;;;;;;345575;28;1031;-58
2023/11/26 00:56:01;;;;;;;19.38;10.80;;;10.70;58.90;;;;;;345643;28;1043;-59
2023/11/26 00:56:12;;;;;;;18.93;10.50;;;10.70;58.90;;;;;;345665;28;1027;-60
2023/11/26 00:56:22;;;;;;;18.45;10.40;;;10.70;58.90;;;;;;345625;28;894;-56
2023/11/26 00:56:33;;;;;;;17.38;9.88;;;10.70;58.80;;;;;;345668;28;1566;-57
2023/11/26 00:56:44;;;;;;;17.67;9.52;;;10.70;58.80;;;;;;345672;28;864;-58
2023/11/26 00:56:55;;;;;;;19.48;9.80;;;10.70;58.80;;;;;;345614;28;972;-61
2023/11/26 00:57:06;;;;;;;20.92;11.15;;;10.70;58.80;;;;;;345664;28;1008;-58
2023/11/26 00:57:17;;;;;;;21.45;11.52;;;10.70;58.80;;;;;;345616;28;1800;-58
2023/11/26 00:57:28;;;;;;;19.65;11.32;;;10.70;58.80;;;;;;345640;28;1025;-57
2023/11/26 00:57:39;;;;;;;19.10;10.27;;;10.70;58.80;;;;;;345686;28;1026;-57
2023/11/26 00:57:50;;;;;;;19.00;10.32;;;10.70;58.90;;;;;;345664;28;853;-57
2023/11/26 00:58:02;;;;;;;19.45;10.45;;;10.70;58.80;;;;;;345532;28;1119;-58